Time;durP1;ratioP1;P1;durP2;ratioP2;P2;SDS_P1;SDS_P2;PMS_P1;PMS_P2;Temp;Humidity;BMP_temperature;BMP_pressure;BME280_temperature;BME280_humidity;BME280_pressure;Samples;Min_cycle;Max_cycle;Signal;HPM_P1;HPM_P2
2021/12/11 00:01:10;;;;;;;31.23;22.92;;;;;;;5.78;100.00;99549.03;5092814;28;20032;-69
2021/12/11 00:03:41;;;;;;;33.17;23.40;;;;;;;5.58;100.00;99548.50;5092551;28;20020;-69
2021/12/11 00:06:21;;;;;;;32.80;22.25;;;;;;;5.57;100.00;99549.31;5092602;28;20026;-69
2021/12/11 00:08:50;;;;;;;31.90;22.27;;;;;;;5.31;100.00;99551.38;5092657;28;20113;-68
2021/12/11 00:11:28;;;;;;;28.15;20.15;;;;;;;5.61;100.00;99512.28;5092899;28;20361;-69
2021/12/11 00:13:56;;;;;;;26.70;18.90;;;;;;;5.83;100.00;99547.28;5091114;28;20036;-69
2021/12/11 00:16:25;;;;;;;22.30;16.48;;;;;;;5.78;100.00;99548.19;5092606;28;20102;-69
2021/12/11 00:18:57;;;;;;;22.88;17.17;;;;;;;5.90;100.00;99553.88;5092785;28;20061;-68
2021/12/11 00:21:25;;;;;;;45.95;24.17;;;;;;;5.81;100.00;99559.03;5092279;28;20054;-69
2021/12/11 00:24:08;;;;;;;57.33;29.77;;;;;;;5.56;100.00;99567.84;5092436;28;20035;-68
2021/12/11 00:26:50;;;;;;;43.00;27.95;;;;;;;5.70;100.00;99555.03;5092301;28;20035;-68
2021/12/11 00:29:22;;;;;;;48.75;32.40;;;;;;;5.58;100.00;99567.81;5090787;28;20032;-69
2021/12/11 00:31:51;;;;;;;52.03;32.65;;;;;;;5.31;100.00;99558.94;5090814;28;20024;-69
2021/12/11 00:34:21;;;;;;;46.28;28.02;;;;;;;5.19;100.00;99562.47;5092113;28;20412;-69
2021/12/11 00:36:57;;;;;;;44.17;25.45;;;;;;;5.42;100.00;99563.84;5091970;28;20035;-69
2021/12/11 00:39:24;;;;;;;26.23;17.80;;;;;;;5.45;100.00;99564.63;5091810;28;20035;-69
2021/12/11 00:41:55;;;;;;;24.67;15.90;;;;;;;5.53;100.00;99554.44;5090959;28;20056;-69
2021/12/11 00:44:40;;;;;;;37.60;24.33;;;;;;;5.52;100.00;99565.38;5091815;28;20499;-69
2021/12/11 00:47:28;;;;;;;34.50;22.55;;;;;;;5.33;100.00;99567.31;5091918;28;20341;-69
2021/12/11 00:50:09;;;;;;;24.75;17.23;;;;;;;5.30;100.00;99585.00;5091526;28;20146;-69
2021/12/11 00:52:44;;;;;;;23.70;17.08;;;;;;;5.27;100.00;99590.91;5091731;28;20020;-68
2021/12/11 00:55:32;;;;;;;27.48;19.52;;;;;;;5.16;100.00;99599.47;5091840;28;20032;-68
2021/12/11 00:58:10;;;;;;;27.90;18.67;;;;;;;5.68;100.00;99595.41;5090310;28;20036;-69
2021/12/11 01:01:08;;;;;;;31.02;21.38;;;;;;;5.73;100.00;99607.91;5091440;28;20027;-69
2021/12/11 01:03:56;;;;;;;30.60;20.58;;;;;;;5.23;100.00;99611.97;5091050;28;20047;-68
2021/12/11 01:06:27;;;;;;;41.58;25.98;;;;;;;5.29;100.00;99604.31;5091531;28;20035;-69
2021/12/11 01:08:58;;;;;;;45.25;28.38;;;;;;;5.40;100.00;99610.91;5091640;28;20495;-69
2021/12/11 01:11:42;;;;;;;42.88;30.35;;;;;;;5.31;100.00;99621.13;5091392;28;20103;-69
2021/12/11 01:14:40;;;;;;;37.90;26.52;;;;;;;4.82;100.00;99618.31;5091232;28;20040;-69
2021/12/11 01:17:19;;;;;;;38.42;25.95;;;;;;;5.29;100.00;99618.59;5091120;28;20071;-68
2021/12/11 01:19:50;;;;;;;30.23;20.77;;;;;;;4.61;100.00;99616.88;5091268;28;20031;-68
2021/12/11 01:22:44;;;;;;;21.08;13.98;;;;;;;5.13;100.00;99622.19;5091354;28;20059;-71
2021/12/11 01:25:20;;;;;;;37.90;24.63;;;;;;;4.69;100.00;99620.16;5090968;28;20071;-69
2021/12/11 01:27:53;;;;;;;33.03;22.10;;;;;;;4.68;100.00;99588.28;5091168;28;20077;-69
2021/12/11 01:30:29;;;;;;;36.65;26.70;;;;;;;4.56;100.00;99607.69;5089822;28;20035;-69
2021/12/11 01:32:55;;;;;;;36.40;25.00;;;;;;;4.79;100.00;99596.56;5091294;28;20053;-68
2021/12/11 01:35:22;;;;;;;44.90;28.10;;;;;;;5.08;100.00;99588.66;5091043;28;20110;-68
2021/12/11 01:38:00;;;;;;;38.88;27.17;;;;;;;5.00;100.00;99605.53;5090983;28;20496;-68
2021/12/11 01:40:30;;;;;;;42.63;28.70;;;;;;;4.79;100.00;99591.53;5089514;28;20035;-69
2021/12/11 01:42:56;;;;;;;46.20;30.35;;;;;;;4.96;100.00;99599.72;5091150;28;20111;-69
2021/12/11 01:45:22;;;;;;;38.55;25.48;;;;;;;5.14;100.00;99596.13;5090840;28;20027;-68
2021/12/11 01:47:49;;;;;;;34.40;23.25;;;;;;;5.08;100.00;99586.97;5091025;28;20031;-68
2021/12/11 01:50:21;;;;;;;28.08;19.80;;;;;;;5.23;100.00;99604.41;5091019;28;20016;-69
2021/12/11 01:52:54;;;;;;;20.88;14.48;;;;;;;5.10;100.00;99605.41;5090613;28;20032;-68
2021/12/11 01:55:26;;;;;;;23.50;16.15;;;;;;;4.94;100.00;99566.16;5089685;28;20533;-68
2021/12/11 01:57:54;;;;;;;16.65;11.18;;;;;;;4.99;100.00;99569.44;5090916;28;20028;-69
2021/12/11 02:00:36;;;;;;;15.77;8.88;;;;;;;5.30;100.00;99587.53;5089444;28;20024;-69
2021/12/11 02:03:10;;;;;;;11.80;8.18;;;;;;;4.95;100.00;99593.00;5089402;28;20032;-69
2021/12/11 02:05:43;;;;;;;16.02;11.77;;;;;;;4.70;100.00;99586.56;5090818;28;20045;-68
2021/12/11 02:08:18;;;;;;;14.73;10.25;;;;;;;4.82;100.00;99583.91;5089375;28;20028;-68
2021/12/11 02:11:12;;;;;;;13.02;8.10;;;;;;;4.89;100.00;99584.69;5091023;28;20387;-68
2021/12/11 02:13:50;;;;;;;11.93;7.72;;;;;;;4.88;100.00;99583.00;5086965;28;20076;-68
2021/12/11 02:16:30;;;;;;;12.60;7.60;;;;;;;4.77;100.00;99587.34;5089483;28;20063;-68
2021/12/11 02:19:03;;;;;;;12.38;7.47;;;;;;;4.93;100.00;99593.88;5090790;28;20556;-68
2021/12/11 02:21:35;;;;;;;14.85;9.40;;;;;;;4.87;100.00;99587.19;5090550;28;20020;-67
2021/12/11 02:24:08;;;;;;;20.83;11.70;;;;;;;4.62;100.00;99592.53;5090393;28;20117;-69
2021/12/11 02:26:39;;;;;;;15.35;10.25;;;;;;;4.82;100.00;99598.19;5090727;28;20032;-69
2021/12/11 02:29:14;;;;;;;13.25;10.00;;;;;;;4.87;100.00;99602.31;5089224;28;20101;-68
2021/12/11 02:32:03;;;;;;;14.65;8.85;;;;;;;5.09;100.00;99597.88;5090338;28;20105;-69
2021/12/11 02:34:54;;;;;;;10.77;7.32;;;;;;;4.79;100.00;99593.19;5088689;28;20122;-69
2021/12/11 02:37:45;;;;;;;9.68;6.80;;;;;;;4.81;100.00;99591.50;5090524;28;20093;-69
2021/12/11 02:40:21;;;;;;;7.80;5.40;;;;;;;4.82;100.00;99601.53;5090734;28;20067;-68
2021/12/11 02:43:23;;;;;;;9.45;6.93;;;;;;;4.68;100.00;99595.81;5088986;28;20039;-69
2021/12/11 02:45:58;;;;;;;12.40;8.65;;;;;;;4.68;100.00;99577.38;5077959;28;20105;-68
2021/12/11 02:48:31;;;;;;;14.75;9.90;;;;;;;4.82;100.00;99603.22;5090207;28;20031;-69
2021/12/11 02:51:06;;;;;;;14.48;9.60;;;;;;;4.59;100.00;99607.69;5090312;28;20484;-70
2021/12/11 02:53:37;;;;;;;12.95;8.70;;;;;;;4.28;100.00;99580.28;5090518;28;20032;-68
2021/12/11 02:56:13;;;;;;;13.90;9.90;;;;;;;4.63;100.00;99597.56;5090249;28;20050;-69
2021/12/11 02:58:47;;;;;;;11.73;8.30;;;;;;;4.64;100.00;99608.44;5090234;28;20871;-68
2021/12/11 03:01:24;;;;;;;10.57;6.70;;;;;;;4.34;100.00;99602.03;5090274;28;20093;-70
2021/12/11 03:03:59;;;;;;;9.63;7.30;;;;;;;4.47;100.00;99585.16;5090308;28;20028;-69
2021/12/11 03:06:28;;;;;;;12.52;8.15;;;;;;;4.25;100.00;99589.56;5092512;28;21103;-69
2021/12/11 03:08:58;;;;;;;11.80;6.82;;;;;;;4.15;100.00;99580.41;5093923;28;20453;-69
2021/12/11 03:11:31;;;;;;;11.55;6.45;;;;;;;4.16;100.00;99592.16;5094397;28;20442;-68
2021/12/11 03:14:03;;;;;;;13.75;8.23;;;;;;;4.46;100.00;99591.84;5093713;28;20055;-69
2021/12/11 03:16:32;;;;;;;13.57;7.53;;;;;;;4.30;100.00;99580.25;5093507;28;20031;-69
2021/12/11 03:19:00;;;;;;;10.85;6.85;;;;;;;4.53;100.00;99552.38;5093755;28;20099;-69
2021/12/11 03:21:27;;;;;;;11.38;6.35;;;;;;;4.26;100.00;99583.66;5092265;28;20085;-68
2021/12/11 03:24:00;;;;;;;11.70;8.02;;;;;;;4.32;100.00;99576.91;5094125;28;20407;-68
2021/12/11 03:26:28;;;;;;;11.80;7.68;;;;;;;4.28;100.00;99579.44;5092068;28;20025;-68
2021/12/11 03:28:54;;;;;;;13.15;7.95;;;;;;;4.17;100.00;99579.56;5093399;28;20488;-69
2021/12/11 03:31:21;;;;;;;9.50;6.82;;;;;;;4.15;100.00;99573.72;5093502;28;20031;-68
2021/12/11 03:33:53;;;;;;;10.38;6.32;;;;;;;4.30;100.00;99582.78;5093288;28;20393;-68
2021/12/11 03:36:23;;;;;;;9.25;5.68;;;;;;;3.89;100.00;99558.00;5092318;28;20503;-68
2021/12/11 03:38:54;;;;;;;9.45;5.53;;;;;;;4.29;100.00;99578.63;5091873;28;20032;-68
2021/12/11 03:41:21;;;;;;;8.88;5.85;;;;;;;3.97;100.00;99593.13;5092790;28;20062;-69
2021/12/11 03:43:48;;;;;;;11.63;6.07;;;;;;;4.31;100.00;99587.81;5092944;28;20067;-69
2021/12/11 03:46:22;;;;;;;9.27;6.10;;;;;;;4.09;100.00;99590.53;5093133;28;20025;-69
2021/12/11 03:48:58;;;;;;;7.55;5.32;;;;;;;4.42;100.00;99601.97;5091705;28;20074;-68
2021/12/11 03:51:33;;;;;;;11.50;5.85;;;;;;;4.34;100.00;99612.94;5091565;28;20028;-68
2021/12/11 03:54:01;;;;;;;7.82;5.60;;;;;;;4.48;100.00;99615.31;5092789;28;20492;-69
2021/12/11 03:56:29;;;;;;;9.32;6.28;;;;;;;4.62;100.00;99615.19;5092930;28;20024;-68
2021/12/11 03:58:55;;;;;;;10.80;5.93;;;;;;;4.57;100.00;99574.97;5092760;28;20058;-69
2021/12/11 04:01:35;;;;;;;10.65;5.60;;;;;;;4.70;100.00;99620.97;5092797;28;20031;-68
2021/12/11 04:04:05;;;;;;;10.45;5.80;;;;;;;4.60;100.00;99574.94;5091564;28;20028;-69
2021/12/11 04:06:32;;;;;;;7.68;5.35;;;;;;;4.86;100.00;99622.47;5092661;28;20020;-68
2021/12/11 04:09:04;;;;;;;17.20;5.70;;;;;;;4.67;100.00;99558.94;5091292;28;20468;-69
2021/12/11 04:11:33;;;;;;;10.10;5.40;;;;;;;5.06;100.00;99613.88;5092708;28;20092;-69
2021/12/11 04:14:05;;;;;;;9.05;5.68;;;;;;;4.98;100.00;99614.78;5091094;28;20511;-68
2021/12/11 04:16:33;;;;;;;;;;;;;;;5.04;100.00;99628.16;5092820;28;20556;-69
2021/12/11 04:19:00;;;;;;;12.38;6.85;;;;;;;5.08;100.00;99619.72;5092455;28;19923;-69
2021/12/11 04:21:30;;;;;;;11.98;6.78;;;;;;;4.87;100.00;99609.06;5092219;28;20032;-68
2021/12/11 04:23:56;;;;;;;8.18;5.45;;;;;;;4.99;100.00;99603.88;5092468;28;20049;-68
2021/12/11 04:26:23;;;;;;;10.57;5.65;;;;;;;4.95;100.00;99585.44;5092200;28;20035;-68
2021/12/11 04:28:49;;;;;;;9.07;5.80;;;;;;;4.87;100.00;99594.75;5092208;28;20031;-68
2021/12/11 04:31:22;;;;;;;8.63;5.55;;;;;;;5.08;100.00;99611.31;5092284;28;20024;-68
2021/12/11 04:33:51;;;;;;;8.85;5.70;;;;;;;4.86;100.00;99598.16;5090786;28;20035;-69
2021/12/11 04:36:34;;;;;;;8.98;5.03;;;;;;;5.01;100.00;99607.22;5090765;28;20020;-68
2021/12/11 04:39:04;;;;;;;9.85;5.35;;;;;;;4.96;100.00;99602.22;5092008;28;20038;-69
2021/12/11 04:41:39;;;;;;;7.72;5.47;;;;;;;5.02;100.00;99623.97;5091810;28;20068;-68
2021/12/11 04:44:11;;;;;;;9.10;5.55;;;;;;;4.90;100.00;99614.88;5090504;28;20115;-69
2021/12/11 04:46:37;;;;;;;;;;;;;;;4.97;100.00;99621.50;5092280;28;20099;-69
2021/12/11 04:49:23;;;;;;;10.15;6.53;;;;;;;4.91;100.00;99619.06;5092005;28;20420;-69
2021/12/11 04:52:01;;;;;;;9.63;5.90;;;;;;;4.92;100.00;99613.19;5091781;28;20038;-69
2021/12/11 04:54:44;;;;;;;8.68;5.82;;;;;;;4.95;100.00;99622.41;5091741;28;20184;-72
2021/12/11 05:11:00;;;;;;;11.77;7.47;;;;;;;4.57;100.00;99609.38;5092040;28;20097;-68
2021/12/11 05:13:28;;;;;;;11.50;8.13;;;;;;;4.80;100.00;99615.00;5091532;28;20405;-69
2021/12/11 05:15:59;;;;;;;11.63;8.50;;;;;;;4.70;100.00;99600.84;5091355;28;20028;-69
2021/12/11 05:18:30;;;;;;;13.13;8.63;;;;;;;4.68;100.00;99600.00;5091233;28;20028;-69
2021/12/11 05:21:05;;;;;;;21.40;13.27;;;;;;;4.79;100.00;99610.81;5090135;28;20138;-67
2021/12/11 05:23:31;;;;;;;15.95;11.00;;;;;;;4.88;100.00;99621.63;5091338;28;20107;-68
2021/12/11 05:25:57;;;;;;;17.77;11.23;;;;;;;4.75;100.00;99619.25;5091261;28;20032;-67
2021/12/11 05:28:24;;;;;;;14.85;9.82;;;;;;;4.76;100.00;99614.19;5077513;28;20024;-67
2021/12/11 05:30:54;;;;;;;14.27;9.13;;;;;;;4.78;100.00;99589.84;5070694;28;20033;-69
2021/12/11 05:33:21;;;;;;;17.70;10.40;;;;;;;4.70;100.00;99570.63;5070549;28;20028;-68
2021/12/11 05:36:00;;;;;;;17.85;11.45;;;;;;;5.08;100.00;99588.66;5070246;28;20025;-67
2021/12/11 05:38:27;;;;;;;17.92;11.80;;;;;;;4.86;100.00;99600.66;5070810;28;20039;-68
2021/12/11 05:41:00;;;;;;;19.88;11.85;;;;;;;4.89;100.00;99584.69;5070471;28;20590;-68
2021/12/11 05:43:33;;;;;;;24.17;15.23;;;;;;;5.42;100.00;99620.13;5070006;28;20063;-67
2021/12/11 05:46:00;;;;;;;17.15;11.27;;;;;;;5.28;100.00;99622.84;5070624;28;20451;-69
2021/12/11 05:48:26;;;;;;;16.95;9.73;;;;;;;5.57;100.00;99635.03;5070258;28;20033;-69
2021/12/11 05:51:01;;;;;;;14.63;9.00;;;;;;;5.55;100.00;99628.34;5070062;28;20037;-69
2021/12/11 05:53:31;;;;;;;14.82;10.00;;;;;;;5.56;100.00;99623.31;5070546;28;20085;-69
2021/12/11 05:55:59;;;;;;;13.63;7.90;;;;;;;5.53;100.00;99630.88;5068634;28;20040;-70
2021/12/11 05:58:56;;;;;;;13.82;8.05;;;;;;;5.68;100.00;99612.22;5067873;28;20039;-69
2021/12/11 06:01:55;;;;;;;25.77;13.77;;;;;;;5.61;100.00;99605.56;5070480;28;20029;-68
2021/12/11 06:04:29;;;;;;;15.85;8.55;;;;;;;5.33;100.00;99595.03;5068130;28;20074;-69
2021/12/11 06:06:55;;;;;;;12.75;8.25;;;;;;;5.01;100.00;99605.50;5070529;28;20028;-68
2021/12/11 06:09:26;;;;;;;18.33;10.30;;;;;;;5.07;100.00;99609.66;5070024;28;20028;-68
2021/12/11 06:11:56;;;;;;;13.67;7.70;;;;;;;5.22;100.00;99617.03;5069657;28;20024;-68
2021/12/11 06:14:26;;;;;;;17.25;10.10;;;;;;;5.38;100.00;99622.69;5069993;28;20024;-69
2021/12/11 06:16:53;;;;;;;16.20;9.65;;;;;;;5.23;100.00;99619.53;5070160;28;20051;-69
2021/12/11 06:19:22;;;;;;;16.05;9.82;;;;;;;5.80;100.00;99627.16;5068551;28;20078;-67
2021/12/11 06:21:53;;;;;;;15.20;8.90;;;;;;;6.93;100.00;99621.03;5070416;28;20081;-69
2021/12/11 06:24:21;;;;;;;13.87;8.97;;;;;;;6.84;100.00;99625.44;5069390;28;20103;-73
2021/12/11 06:26:50;;;;;;;16.92;9.18;;;;;;;8.32;100.00;99620.50;5069972;28;20262;-69
2021/12/11 06:29:16;;;;;;;14.57;8.45;;;;;;;7.92;100.00;99634.13;5070193;28;20112;-70
2021/12/11 06:31:44;;;;;;;16.05;8.63;;;;;;;8.91;100.00;99646.88;5069998;28;20482;-70
2021/12/11 06:34:12;;;;;;;17.58;10.15;;;;;;;9.68;100.00;99641.28;5070107;28;20040;-70
2021/12/11 06:36:38;;;;;;;21.85;10.75;;;;;;;10.54;100.00;99639.38;5069937;28;20028;-72
2021/12/11 06:39:11;;;;;;;15.55;9.80;;;;;;;12.04;100.00;99638.09;5070165;28;20033;-72
2021/12/11 06:41:39;;;;;;;15.68;9.05;;;;;;;12.02;100.00;99649.25;5073446;28;20059;-69
2021/12/11 06:44:08;;;;;;;18.10;10.18;;;;;;;11.44;100.00;99654.84;5073495;28;20499;-67
2021/12/11 06:46:35;;;;;;;17.83;10.27;;;;;;;11.09;100.00;99585.72;5073548;28;20021;-68
2021/12/11 06:49:03;;;;;;;14.15;8.30;;;;;;;9.54;100.00;99672.97;5073088;28;20059;-70
2021/12/11 06:51:29;;;;;;;12.40;7.32;;;;;;;8.18;100.00;99652.06;5073492;28;20028;-68
2021/12/11 06:53:59;;;;;;;12.77;7.57;;;;;;;7.26;100.00;99624.59;5072362;28;20027;-69
2021/12/11 06:56:27;;;;;;;19.83;9.52;;;;;;;9.26;100.00;99666.16;5070493;28;20048;-69
2021/12/11 06:58:58;;;;;;;35.67;11.25;;;;;;;8.04;100.00;99654.09;5071742;28;20032;-67
2021/12/11 07:01:27;;;;;;;17.70;9.85;;;;;;;7.75;100.00;99627.75;5071830;28;20024;-67
2021/12/11 07:03:53;;;;;;;22.73;10.50;;;;;;;8.12;100.00;99632.78;5072072;28;20117;-68
2021/12/11 07:06:21;;;;;;;22.65;10.40;;;;;;;8.32;100.00;99625.56;5072926;28;20020;-68
2021/12/11 07:08:50;;;;;;;20.42;12.07;;;;;;;8.36;100.00;99608.63;5071643;28;20039;-69
2021/12/11 07:11:17;;;;;;;18.23;9.52;;;;;;;8.30;100.00;99618.91;5072523;28;20484;-69
2021/12/11 07:13:44;;;;;;;17.90;8.20;;;;;;;8.42;100.00;99627.00;5070512;28;20032;-69
2021/12/11 07:16:10;;;;;;;9.65;6.85;;;;;;;7.90;100.00;99612.19;5070436;28;20024;-71
2021/12/11 07:18:37;;;;;;;13.77;6.88;;;;;;;7.82;100.00;99634.31;5071979;28;20028;-67
2021/12/11 07:21:05;;;;;;;14.35;7.95;;;;;;;7.49;100.00;99584.47;5071984;28;20545;-68
2021/12/11 07:23:31;;;;;;;15.35;8.50;;;;;;;7.94;100.00;99614.69;5070922;28;20032;-68
2021/12/11 07:26:04;;;;;;;12.27;8.48;;;;;;;8.13;100.00;99599.00;5072701;28;20028;-68
2021/12/11 07:28:31;;;;;;;17.83;9.70;;;;;;;8.31;100.00;99613.78;5073164;28;20033;-68
2021/12/11 07:30:59;;;;;;;18.50;9.75;;;;;;;8.25;100.00;99585.25;5073229;28;20076;-68
2021/12/11 07:33:26;;;;;;;19.27;10.48;;;;;;;8.32;100.00;99597.72;5073056;28;20055;-67
2021/12/11 07:35:53;;;;;;;18.35;9.30;;;;;;;8.48;100.00;99626.84;5073100;28;20035;-68
2021/12/11 07:38:20;;;;;;;18.20;9.13;;;;;;;8.49;100.00;99628.53;5072861;28;20025;-68
2021/12/11 07:40:52;;;;;;;13.32;7.50;;;;;;;8.18;100.00;99571.88;5071282;28;20515;-67
2021/12/11 07:43:19;;;;;;;16.92;8.30;;;;;;;8.54;100.00;99588.69;5072983;28;20036;-67
2021/12/11 07:45:46;;;;;;;16.08;8.18;;;;;;;8.74;100.00;99618.56;5072849;28;20043;-67
2021/12/11 07:48:12;;;;;;;15.20;8.00;;;;;;;8.57;100.00;99606.38;5073059;28;20028;-68
2021/12/11 07:50:41;;;;;;;13.55;7.18;;;;;;;8.49;100.00;99603.19;5071150;28;20028;-67
2021/12/11 07:53:07;;;;;;;12.20;6.80;;;;;;;8.63;100.00;99608.75;5071376;28;20397;-67
2021/12/11 07:55:33;;;;;;;13.93;7.88;;;;;;;8.82;100.00;99608.22;5071365;28;20020;-68
2021/12/11 07:58:01;;;;;;;20.38;10.35;;;;;;;8.86;100.00;99597.97;5072879;28;20016;-68
2021/12/11 08:00:27;;;;;;;19.60;11.02;;;;;;;9.11;100.00;99623.50;5071356;28;20052;-67
2021/12/11 08:02:54;;;;;;;19.35;10.55;;;;;;;9.05;100.00;99626.19;5072541;28;20031;-67
2021/12/11 08:05:21;;;;;;;14.27;9.90;;;;;;;9.16;100.00;99641.94;5071143;28;20074;-67
2021/12/11 08:07:49;;;;;;;15.43;8.60;;;;;;;9.24;100.00;99640.03;5072447;28;20461;-67
2021/12/11 08:10:19;;;;;;;12.65;7.80;;;;;;;9.19;100.00;99619.84;5072403;28;20028;-68
2021/12/11 08:12:47;;;;;;;18.42;8.15;;;;;;;8.84;100.00;99579.44;5072219;28;20098;-67
2021/12/11 08:15:14;;;;;;;16.67;6.97;;;;;;;8.99;100.00;99609.47;5070899;28;20137;-67
2021/12/11 08:17:40;;;;;;;16.75;7.95;;;;;;;9.05;100.00;99611.00;5071051;28;20033;-67
2021/12/11 08:20:10;;;;;;;14.85;7.78;;;;;;;9.08;100.00;99595.69;5070733;28;20020;-67
2021/12/11 08:22:37;;;;;;;15.57;7.22;;;;;;;9.15;100.00;99597.19;5071994;28;20071;-68
2021/12/11 08:25:05;;;;;;;16.00;8.65;;;;;;;9.35;100.00;99605.03;5072232;28;20021;-68
2021/12/11 08:27:32;;;;;;;13.65;7.45;;;;;;;9.37;100.00;99600.75;5071915;28;20502;-68
2021/12/11 08:29:58;;;;;;;16.08;7.07;;;;;;;9.42;100.00;99581.16;5070854;28;20478;-68
2021/12/11 08:32:25;;;;;;;13.63;6.93;;;;;;;9.49;100.00;99588.53;5070583;28;20082;-68
2021/12/11 08:34:52;;;;;;;17.38;6.30;;;;;;;9.43;100.00;99583.63;5072415;28;20396;-68
2021/12/11 08:37:22;;;;;;;12.90;6.13;;;;;;;9.48;100.00;99581.81;5072008;28;20516;-68
2021/12/11 08:39:50;;;;;;;15.13;6.07;;;;;;;9.56;100.00;99584.94;5071865;28;20508;-68
2021/12/11 08:42:23;;;;;;;15.02;6.45;;;;;;;9.60;100.00;99595.84;5071454;28;20048;-67
2021/12/11 08:44:57;;;;;;;16.85;8.70;;;;;;;9.60;100.00;99583.97;5071694;28;20024;-68
2021/12/11 08:47:24;;;;;;;16.15;7.82;;;;;;;9.63;100.00;99594.91;5071662;28;20111;-67
2021/12/11 08:49:52;;;;;;;14.10;6.80;;;;;;;9.61;100.00;99578.00;5071490;28;20583;-67
2021/12/11 08:52:30;;;;;;;14.98;6.55;;;;;;;9.67;100.00;99573.63;5071828;28;20501;-67
2021/12/11 08:54:57;;;;;;;13.48;6.38;;;;;;;9.70;100.00;99573.53;5071663;28;20027;-68
2021/12/11 08:57:28;;;;;;;15.73;5.88;;;;;;;9.69;100.00;99562.53;5071457;28;20055;-68
2021/12/11 08:59:57;;;;;;;17.35;6.30;;;;;;;9.71;100.00;99544.72;5071456;28;20021;-67
2021/12/11 09:02:40;;;;;;;14.70;6.60;;;;;;;9.84;100.00;99554.47;5070592;28;20514;-68
2021/12/11 09:05:17;;;;;;;16.60;7.22;;;;;;;9.89;100.00;99560.22;5071210;28;20107;-69
2021/12/11 09:07:56;;;;;;;14.43;6.60;;;;;;;9.91;100.00;99552.53;5071165;28;20041;-68
2021/12/11 09:10:37;;;;;;;20.23;6.15;;;;;;;10.00;100.00;99557.34;5071564;28;20542;-68
2021/12/11 09:13:10;;;;;;;15.02;7.03;;;;;;;10.08;100.00;99548.56;5071321;28;20043;-67
2021/12/11 09:16:09;;;;;;;14.45;6.72;;;;;;;10.12;100.00;99541.75;5070955;28;20095;-67
2021/12/11 09:18:58;;;;;;;17.15;6.22;;;;;;;10.14;100.00;99539.97;5069812;28;20098;-68
2021/12/11 09:21:35;;;;;;;16.30;6.38;;;;;;;10.24;100.00;99543.88;5069675;28;20032;-67
2021/12/11 09:24:10;;;;;;;18.38;5.53;;;;;;;10.24;100.00;99547.22;5071039;28;20211;-69
2021/12/11 09:26:51;;;;;;;14.95;5.80;;;;;;;10.27;100.00;99539.50;5070998;28;20025;-67
2021/12/11 09:29:35;;;;;;;16.95;5.85;;;;;;;10.19;100.00;99536.41;5070825;28;20027;-67
2021/12/11 09:32:14;;;;;;;14.30;5.72;;;;;;;10.26;100.00;99537.03;5069851;28;20036;-66
2021/12/11 09:34:52;;;;;;;14.38;5.03;;;;;;;10.30;100.00;99541.13;5070788;28;20039;-67
2021/12/11 09:37:20;;;;;;;13.20;5.45;;;;;;;10.44;100.00;99532.13;5070992;28;20107;-67
2021/12/11 09:39:57;;;;;;;17.42;6.95;;;;;;;10.53;100.00;99530.16;5069500;28;20051;-67
2021/12/11 09:42:23;;;;;;;15.38;7.47;;;;;;;10.50;100.00;99528.53;5070542;28;20063;-67
2021/12/11 09:45:23;;;;;;;14.38;5.63;;;;;;;10.41;100.00;99516.16;5069676;28;20025;-67
2021/12/11 09:47:56;;;;;;;17.50;6.13;;;;;;;10.41;100.00;99518.72;5070576;28;20579;-67
2021/12/11 09:50:34;;;;;;;13.95;5.72;;;;;;;10.34;100.00;99510.47;5070547;28;20058;-67
2021/12/11 09:53:01;;;;;;;12.25;5.07;;;;;;;10.33;100.00;99506.28;5070652;28;20115;-68
2021/12/11 09:55:36;;;;;;;12.30;4.95;;;;;;;10.33;100.00;99500.34;5069615;28;20416;-67
2021/12/11 09:58:10;;;;;;;16.23;5.68;;;;;;;10.39;100.00;99506.06;5069416;28;20025;-67
2021/12/11 10:00:49;;;;;;;20.52;6.53;;;;;;;10.39;100.00;99505.22;5069318;28;20103;-68
2021/12/11 10:03:20;;;;;;;15.85;7.18;;;;;;;10.30;100.00;99480.97;5069300;28;20027;-67
2021/12/11 10:05:55;;;;;;;14.60;6.68;;;;;;;10.42;100.00;99505.94;5070565;28;20029;-68
2021/12/11 10:08:31;;;;;;;14.90;6.40;;;;;;;10.44;100.00;99491.47;5070655;28;20033;-67
2021/12/11 10:11:21;;;;;;;20.15;7.90;;;;;;;10.53;100.00;99497.13;5069128;28;20036;-67
2021/12/11 10:13:51;;;;;;;18.23;6.40;;;;;;;10.28;100.00;99462.41;5070243;28;20135;-68
2021/12/11 10:16:20;;;;;;;17.98;7.15;;;;;;;10.50;100.00;99498.03;5074684;28;20036;-67
2021/12/11 10:18:50;;;;;;;13.05;5.10;;;;;;;10.52;100.00;99495.47;5074427;28;20036;-68
2021/12/11 10:21:37;;;;;;;15.50;5.70;;;;;;;10.56;100.00;99499.56;5074321;28;20028;-67
2021/12/11 10:24:09;;;;;;;13.50;5.60;;;;;;;10.54;100.00;99502.13;5074404;28;20021;-68
2021/12/11 10:26:35;;;;;;;17.30;5.78;;;;;;;10.65;100.00;99494.13;5073339;28;20027;-67
2021/12/11 10:29:05;;;;;;;14.13;6.22;;;;;;;10.65;100.00;99486.50;5074396;28;20060;-67
2021/12/11 10:31:36;;;;;;;16.77;6.10;;;;;;;10.68;100.00;99501.63;5072879;28;20492;-69
2021/12/11 10:34:08;;;;;;;14.82;4.97;;;;;;;10.70;100.00;99487.16;5074287;28;20061;-67
2021/12/11 10:36:41;;;;;;;11.65;4.97;;;;;;;10.67;100.00;99482.19;5074171;28;20070;-67
2021/12/11 10:39:11;;;;;;;18.73;6.13;;;;;;;10.72;100.00;99472.69;5074083;28;20036;-68
2021/12/11 10:41:38;;;;;;;15.73;6.57;;;;;;;10.67;100.00;99479.66;5073962;28;20097;-68
2021/12/11 10:44:07;;;;;;;14.77;6.03;;;;;;;10.65;100.00;99468.72;5072708;28;20493;-67
2021/12/11 10:46:46;;;;;;;14.32;5.40;;;;;;;10.65;100.00;99459.38;5073853;28;20025;-68
2021/12/11 10:49:13;;;;;;;15.60;5.47;;;;;;;10.51;100.00;99415.03;5072628;28;20028;-67
2021/12/11 10:51:45;;;;;;;13.93;5.32;;;;;;;10.70;100.00;99443.94;5074086;28;20032;-67
2021/12/11 10:54:14;;;;;;;14.05;5.35;;;;;;;10.70;100.00;99428.69;5073718;28;20496;-68
2021/12/11 10:56:42;;;;;;;16.63;5.50;;;;;;;10.69;100.00;99421.97;5073996;28;20040;-67
2021/12/11 10:59:19;;;;;;;15.75;6.47;;;;;;;10.74;100.00;99414.97;5073718;28;20097;-67
2021/12/11 11:02:11;;;;;;;20.98;6.82;;;;;;;10.77;100.00;99428.44;5072298;28;20634;-66
2021/12/11 11:04:40;;;;;;;14.60;5.57;;;;;;;10.80;100.00;99428.31;5072579;28;20020;-67
2021/12/11 11:07:07;;;;;;;20.58;5.85;;;;;;;10.84;100.00;99421.38;5073758;28;20425;-67
2021/12/11 11:09:33;;;;;;;12.70;5.32;;;;;;;10.84;100.00;99413.75;5073513;28;20477;-67
2021/12/11 11:12:03;;;;;;;18.58;6.50;;;;;;;10.84;100.00;99401.03;5073657;28;20028;-67
2021/12/11 11:14:31;;;;;;;19.92;6.78;;;;;;;10.88;100.00;99402.56;5073548;28;20020;-67
2021/12/11 11:17:07;;;;;;;16.60;6.03;;;;;;;11.00;100.00;99413.13;5073294;28;20025;-68
2021/12/11 11:19:37;;;;;;;17.65;5.68;;;;;;;11.04;100.00;99396.84;5072019;28;20032;-67
2021/12/11 11:22:08;;;;;;;17.30;6.70;;;;;;;11.14;100.00;99395.59;5072072;28;20044;-68
2021/12/11 11:24:38;;;;;;;19.42;7.30;;;;;;;11.17;100.00;99377.66;5073107;28;20086;-68
2021/12/11 11:27:05;;;;;;;17.35;5.80;;;;;;;11.29;100.00;99404.31;5072515;28;20098;-69
2021/12/11 11:29:32;;;;;;;16.30;4.93;;;;;;;11.37;100.00;99411.66;5073333;28;20033;-67
2021/12/11 11:32:05;;;;;;;19.92;6.47;;;;;;;11.32;100.00;99382.16;5073108;28;20481;-68
2021/12/11 11:34:39;;;;;;;21.60;6.97;;;;;;;11.59;100.00;99407.38;5073217;28;20028;-67
2021/12/11 11:37:12;;;;;;;26.20;8.10;;;;;;;11.69;100.00;99403.53;5073185;28;20025;-67
2021/12/11 11:39:38;;;;;;;22.15;6.47;;;;;;;11.79;100.00;99399.72;5073026;28;20469;-67
2021/12/11 11:42:09;;;;;;;19.55;8.93;;;;;;;11.86;100.00;99398.59;5072632;28;20201;-68
2021/12/11 11:44:36;;;;;;;15.65;6.15;;;;;;;11.96;100.00;99387.94;5073067;28;20050;-67
2021/12/11 11:47:04;;;;;;;21.20;5.97;;;;;;;11.99;100.00;99381.88;5072763;28;20559;-68
2021/12/11 11:49:31;;;;;;;23.42;8.30;;;;;;;11.94;100.00;99387.16;5071645;28;20060;-67
2021/12/11 11:52:07;;;;;;;21.80;8.55;;;;;;;12.00;100.00;99384.34;5072896;28;20055;-67
2021/12/11 11:54:34;;;;;;;14.13;6.82;;;;;;;12.04;100.00;99385.06;5071361;28;20037;-67
2021/12/11 11:57:09;;;;;;;15.07;6.18;;;;;;;12.10;100.00;99385.59;5072803;28;20028;-66
2021/12/11 11:59:35;;;;;;;14.50;5.20;;;;;;;12.17;100.00;99389.56;5071435;28;20021;-67